sensor_id;sensor_type;location;lat;lon;timestamp;P1;durP1;ratioP1;P2;durP2;ratioP2
13090;SDS011;6611;52.604;13.438;2023-07-16T00:00:01;4.57;;;2.63;;
13090;SDS011;6611;52.604;13.438;2023-07-16T00:05:06;3.00;;;2.63;;
13090;SDS011;6611;52.604;13.438;2023-07-16T00:10:08;3.40;;;2.70;;
13090;SDS011;6611;52.604;13.438;2023-07-16T00:15:10;2.97;;;2.67;;
13090;SDS011;6611;52.604;13.438;2023-07-16T00:20:13;2.77;;;2.47;;
13090;SDS011;6611;52.604;13.438;2023-07-16T00:25:15;4.20;;;2.83;;
13090;SDS011;6611;52.604;13.438;2023-07-16T00:30:17;3.17;;;2.70;;
13090;SDS011;6611;52.604;13.438;2023-07-16T00:35:20;3.80;;;2.90;;
13090;SDS011;6611;52.604;13.438;2023-07-16T00:40:21;3.20;;;2.77;;
13090;SDS011;6611;52.604;13.438;2023-07-16T00:45:23;3.07;;;2.77;;
13090;SDS011;6611;52.604;13.438;2023-07-16T00:50:26;3.20;;;2.90;;
13090;SDS011;6611;52.604;13.438;2023-07-16T00:55:28;4.03;;;3.10;;
13090;SDS011;6611;52.604;13.438;2023-07-16T01:00:31;2.80;;;2.60;;
13090;SDS011;6611;52.604;13.438;2023-07-16T01:05:36;4.33;;;2.87;;
13090;SDS011;6611;52.604;13.438;2023-07-16T01:10:44;3.70;;;2.60;;
13090;SDS011;6611;52.604;13.438;2023-07-16T01:15:46;2.90;;;2.60;;
13090;SDS011;6611;52.604;13.438;2023-07-16T01:20:49;2.90;;;2.60;;
13090;SDS011;6611;52.604;13.438;2023-07-16T01:31:18;4.63;;;2.87;;
13090;SDS011;6611;52.604;13.438;2023-07-16T01:36:21;3.90;;;3.03;;
13090;SDS011;6611;52.604;13.438;2023-07-16T01:41:25;4.50;;;2.73;;
13090;SDS011;6611;52.604;13.438;2023-07-16T01:46:28;2.90;;;2.60;;
13090;SDS011;6611;52.604;13.438;2023-07-16T01:51:30;3.33;;;3.03;;
13090;SDS011;6611;52.604;13.438;2023-07-16T01:56:32;2.97;;;2.63;;
13090;SDS011;6611;52.604;13.438;2023-07-16T02:01:35;3.47;;;2.63;;
13090;SDS011;6611;52.604;13.438;2023-07-16T02:06:37;3.20;;;2.90;;
13090;SDS011;6611;52.604;13.438;2023-07-16T02:11:39;3.30;;;3.00;;
13090;SDS011;6611;52.604;13.438;2023-07-16T02:16:42;3.10;;;2.80;;
13090;SDS011;6611;52.604;13.438;2023-07-16T02:21:43;4.03;;;2.70;;
13090;SDS011;6611;52.604;13.438;2023-07-16T02:26:45;3.50;;;2.60;;
13090;SDS011;6611;52.604;13.438;2023-07-16T02:31:48;3.13;;;2.50;;
13090;SDS011;6611;52.604;13.438;2023-07-16T02:36:49;4.60;;;2.90;;
13090;SDS011;6611;52.604;13.438;2023-07-16T02:41:51;5.23;;;2.80;;
13090;SDS011;6611;52.604;13.438;2023-07-16T02:46:54;3.20;;;2.90;;
13090;SDS011;6611;52.604;13.438;2023-07-16T02:51:56;3.20;;;2.90;;
13090;SDS011;6611;52.604;13.438;2023-07-16T02:56:57;3.00;;;2.70;;
13090;SDS011;6611;52.604;13.438;2023-07-16T03:02:00;4.07;;;2.90;;
13090;SDS011;6611;52.604;13.438;2023-07-16T03:07:02;2.93;;;2.40;;
13090;SDS011;6611;52.604;13.438;2023-07-16T03:12:05;4.20;;;3.40;;
13090;SDS011;6611;52.604;13.438;2023-07-16T03:17:09;4.27;;;3.20;;
13090;SDS011;6611;52.604;13.438;2023-07-16T03:22:10;3.83;;;3.20;;
13090;SDS011;6611;52.604;13.438;2023-07-16T03:27:12;3.50;;;3.20;;
13090;SDS011;6611;52.604;13.438;2023-07-16T03:32:15;3.97;;;3.10;;
13090;SDS011;6611;52.604;13.438;2023-07-16T03:37:16;4.20;;;3.40;;
13090;SDS011;6611;52.604;13.438;2023-07-16T03:42:18;5.10;;;3.37;;
13090;SDS011;6611;52.604;13.438;2023-07-16T03:47:23;4.47;;;3.57;;
13090;SDS011;6611;52.604;13.438;2023-07-16T03:52:25;4.67;;;3.27;;
13090;SDS011;6611;52.604;13.438;2023-07-16T03:57:27;4.13;;;3.40;;
13090;SDS011;6611;52.604;13.438;2023-07-16T04:02:30;4.57;;;3.50;;
13090;SDS011;6611;52.604;13.438;2023-07-16T04:07:32;3.50;;;3.20;;
13090;SDS011;6611;52.604;13.438;2023-07-16T04:12:34;4.00;;;3.37;;
13090;SDS011;6611;52.604;13.438;2023-07-16T04:17:37;5.60;;;3.47;;
13090;SDS011;6611;52.604;13.438;2023-07-16T04:22:38;4.27;;;3.40;;
13090;SDS011;6611;52.604;13.438;2023-07-16T04:27:40;3.20;;;2.90;;
13090;SDS011;6611;52.604;13.438;2023-07-16T04:32:45;3.30;;;2.87;;
13090;SDS011;6611;52.604;13.438;2023-07-16T04:37:46;3.23;;;2.70;;
13090;SDS011;6611;52.604;13.438;2023-07-16T04:42:48;3.27;;;2.97;;
13090;SDS011;6611;52.604;13.438;2023-07-16T04:47:51;2.73;;;2.50;;
13090;SDS011;6611;52.604;13.438;2023-07-16T04:52:53;2.77;;;2.47;;
13090;SDS011;6611;52.604;13.438;2023-07-16T04:57:55;3.20;;;2.60;;
13090;SDS011;6611;52.604;13.438;2023-07-16T05:02:58;3.93;;;2.33;;
13090;SDS011;6611;52.604;13.438;2023-07-16T05:08:00;2.50;;;2.30;;
13090;SDS011;6611;52.604;13.438;2023-07-16T05:13:01;2.40;;;2.20;;
13090;SDS011;6611;52.604;13.438;2023-07-16T05:18:05;3.17;;;2.57;;
13090;SDS011;6611;52.604;13.438;2023-07-16T05:23:06;2.60;;;1.93;;
13090;SDS011;6611;52.604;13.438;2023-07-16T05:28:08;3.00;;;2.43;;
13090;SDS011;6611;52.604;13.438;2023-07-16T05:33:11;3.77;;;2.57;;
13090;SDS011;6611;52.604;13.438;2023-07-16T05:38:13;3.30;;;1.90;;
13090;SDS011;6611;52.604;13.438;2023-07-16T05:43:15;2.50;;;2.30;;
13090;SDS011;6611;52.604;13.438;2023-07-16T05:48:18;2.80;;;2.60;;
13090;SDS011;6611;52.604;13.438;2023-07-16T05:53:19;4.50;;;2.60;;
13090;SDS011;6611;52.604;13.438;2023-07-16T05:58:21;3.20;;;2.90;;
13090;SDS011;6611;52.604;13.438;2023-07-16T06:03:24;2.93;;;2.60;;
13090;SDS011;6611;52.604;13.438;2023-07-16T06:08:25;3.33;;;2.97;;
13090;SDS011;6611;52.604;13.438;2023-07-16T06:13:27;3.80;;;3.00;;
13090;SDS011;6611;52.604;13.438;2023-07-16T06:18:30;3.30;;;2.33;;
13090;SDS011;6611;52.604;13.438;2023-07-16T06:23:32;3.60;;;3.00;;
13090;SDS011;6611;52.604;13.438;2023-07-16T06:28:34;4.20;;;2.80;;
13090;SDS011;6611;52.604;13.438;2023-07-16T06:33:37;3.10;;;2.80;;
13090;SDS011;6611;52.604;13.438;2023-07-16T06:38:38;3.10;;;2.80;;
13090;SDS011;6611;52.604;13.438;2023-07-16T06:43:40;4.17;;;2.43;;
13090;SDS011;6611;52.604;13.438;2023-07-16T06:48:43;3.43;;;2.67;;
13090;SDS011;6611;52.604;13.438;2023-07-16T06:53:45;3.30;;;2.70;;
13090;SDS011;6611;52.604;13.438;2023-07-16T06:58:47;3.77;;;2.50;;
13090;SDS011;6611;52.604;13.438;2023-07-16T07:03:50;3.03;;;2.57;;
13090;SDS011;6611;52.604;13.438;2023-07-16T07:08:51;4.23;;;2.53;;
13090;SDS011;6611;52.604;13.438;2023-07-16T07:13:53;2.60;;;2.40;;
13090;SDS011;6611;52.604;13.438;2023-07-16T07:18:58;2.27;;;2.07;;
13090;SDS011;6611;52.604;13.438;2023-07-16T07:23:59;2.87;;;2.47;;
13090;SDS011;6611;52.604;13.438;2023-07-16T07:29:01;7.03;;;2.53;;
13090;SDS011;6611;52.604;13.438;2023-07-16T07:34:04;2.90;;;2.37;;
13090;SDS011;6611;52.604;13.438;2023-07-16T07:39:06;2.35;;;2.08;;
13090;SDS011;6611;52.604;13.438;2023-07-16T07:44:08;5.43;;;2.05;;
13090;SDS011;6611;52.604;13.438;2023-07-16T07:49:12;3.40;;;2.30;;
13090;SDS011;6611;52.604;13.438;2023-07-16T07:54:13;5.35;;;2.10;;
13090;SDS011;6611;52.604;13.438;2023-07-16T07:59:15;2.15;;;1.88;;
13090;SDS011;6611;52.604;13.438;2023-07-16T08:04:18;2.95;;;2.03;;
13090;SDS011;6611;52.604;13.438;2023-07-16T08:09:20;2.30;;;1.77;;
13090;SDS011;6611;52.604;13.438;2023-07-16T08:14:21;1.77;;;1.67;;
13090;SDS011;6611;52.604;13.438;2023-07-16T08:19:24;2.47;;;1.88;;
13090;SDS011;6611;52.604;13.438;2023-07-16T08:24:26;2.60;;;1.67;;
13090;SDS011;6611;52.604;13.438;2023-07-16T08:29:28;1.60;;;1.50;;
13090;SDS011;6611;52.604;13.438;2023-07-16T08:34:31;3.50;;;1.60;;
13090;SDS011;6611;52.604;13.438;2023-07-16T08:39:33;3.53;;;1.75;;
13090;SDS011;6611;52.604;13.438;2023-07-16T08:44:35;2.50;;;1.60;;
13090;SDS011;6611;52.604;13.438;2023-07-16T08:49:39;1.77;;;1.67;;
13090;SDS011;6611;52.604;13.438;2023-07-16T08:54:42;2.60;;;1.70;;
13090;SDS011;6611;52.604;13.438;2023-07-16T08:59:43;3.58;;;1.90;;
13090;SDS011;6611;52.604;13.438;2023-07-16T09:04:49;2.65;;;1.52;;
13090;SDS011;6611;52.604;13.438;2023-07-16T09:09:55;5.05;;;1.77;;
13090;SDS011;6611;52.604;13.438;2023-07-16T09:14:59;2.47;;;1.85;;
13090;SDS011;6611;52.604;13.438;2023-07-16T09:20:04;2.55;;;1.73;;
13090;SDS011;6611;52.604;13.438;2023-07-16T09:25:07;2.63;;;1.58;;
13090;SDS011;6611;52.604;13.438;2023-07-16T09:30:14;3.13;;;2.50;;
13090;SDS011;6611;52.604;13.438;2023-07-16T09:35:17;2.45;;;1.50;;
13090;SDS011;6611;52.604;13.438;2023-07-16T09:40:19;4.70;;;1.65;;
13090;SDS011;6611;52.604;13.438;2023-07-16T09:45:20;3.10;;;1.98;;
13090;SDS011;6611;52.604;13.438;2023-07-16T09:50:24;2.65;;;1.70;;
13090;SDS011;6611;52.604;13.438;2023-07-16T09:55:27;2.10;;;1.27;;
13090;SDS011;6611;52.604;13.438;2023-07-16T10:00:33;2.28;;;1.38;;
13090;SDS011;6611;52.604;13.438;2023-07-16T10:05:38;2.40;;;1.48;;
13090;SDS011;6611;52.604;13.438;2023-07-16T10:10:41;1.92;;;1.40;;
13090;SDS011;6611;52.604;13.438;2023-07-16T10:15:50;2.67;;;1.60;;
13090;SDS011;6611;52.604;13.438;2023-07-16T10:20:59;2.30;;;1.38;;
13090;SDS011;6611;52.604;13.438;2023-07-16T10:26:02;2.50;;;1.45;;
13090;SDS011;6611;52.604;13.438;2023-07-16T10:31:16;2.13;;;1.45;;
13090;SDS011;6611;52.604;13.438;2023-07-16T10:36:19;2.83;;;1.50;;
13090;SDS011;6611;52.604;13.438;2023-07-16T10:41:21;1.33;;;1.23;;
13090;SDS011;6611;52.604;13.438;2023-07-16T10:46:23;2.97;;;1.75;;
13090;SDS011;6611;52.604;13.438;2023-07-16T10:51:26;1.92;;;1.52;;
13090;SDS011;6611;52.604;13.438;2023-07-16T10:56:28;2.00;;;1.38;;
13090;SDS011;6611;52.604;13.438;2023-07-16T11:01:32;2.42;;;1.55;;
13090;SDS011;6611;52.604;13.438;2023-07-16T11:06:36;4.20;;;1.80;;
13090;SDS011;6611;52.604;13.438;2023-07-16T11:11:37;2.42;;;1.63;;
13090;SDS011;6611;52.604;13.438;2023-07-16T11:16:40;3.38;;;1.80;;
13090;SDS011;6611;52.604;13.438;2023-07-16T11:21:43;3.05;;;1.88;;
13090;SDS011;6611;52.604;13.438;2023-07-16T11:26:49;2.83;;;1.70;;
13090;SDS011;6611;52.604;13.438;2023-07-16T11:31:52;2.00;;;1.70;;
13090;SDS011;6611;52.604;13.438;2023-07-16T11:36:55;3.13;;;2.13;;
13090;SDS011;6611;52.604;13.438;2023-07-16T11:42:08;3.10;;;1.60;;
13090;SDS011;6611;52.604;13.438;2023-07-16T11:47:10;2.70;;;1.60;;
13090;SDS011;6611;52.604;13.438;2023-07-16T11:52:13;3.38;;;1.65;;
13090;SDS011;6611;52.604;13.438;2023-07-16T11:57:14;2.75;;;1.55;;
13090;SDS011;6611;52.604;13.438;2023-07-16T12:02:16;3.85;;;1.90;;
13090;SDS011;6611;52.604;13.438;2023-07-16T12:07:30;3.50;;;1.70;;
13090;SDS011;6611;52.604;13.438;2023-07-16T12:12:32;3.75;;;1.42;;
13090;SDS011;6611;52.604;13.438;2023-07-16T12:17:37;1.75;;;1.27;;
13090;SDS011;6611;52.604;13.438;2023-07-16T12:22:40;2.42;;;1.50;;
13090;SDS011;6611;52.604;13.438;2023-07-16T12:27:42;2.42;;;1.67;;
13090;SDS011;6611;52.604;13.438;2023-07-16T12:32:44;2.13;;;1.38;;
13090;SDS011;6611;52.604;13.438;2023-07-16T12:37:47;1.52;;;1.30;;
13090;SDS011;6611;52.604;13.438;2023-07-16T12:42:48;2.40;;;1.42;;
13090;SDS011;6611;52.604;13.438;2023-07-16T12:47:50;5.10;;;1.88;;
13090;SDS011;6611;52.604;13.438;2023-07-16T12:52:53;3.55;;;1.50;;
13090;SDS011;6611;52.604;13.438;2023-07-16T12:57:54;3.17;;;2.22;;
13090;SDS011;6611;52.604;13.438;2023-07-16T13:02:56;2.53;;;1.80;;
13090;SDS011;6611;52.604;13.438;2023-07-16T13:07:59;2.60;;;1.83;;
13090;SDS011;6611;52.604;13.438;2023-07-16T13:13:01;3.83;;;1.45;;
13090;SDS011;6611;52.604;13.438;2023-07-16T13:18:03;2.28;;;1.67;;
13090;SDS011;6611;52.604;13.438;2023-07-16T13:23:06;2.90;;;1.58;;
13090;SDS011;6611;52.604;13.438;2023-07-16T13:28:08;1.60;;;1.33;;
13090;SDS011;6611;52.604;13.438;2023-07-16T13:33:10;2.05;;;1.42;;
13090;SDS011;6611;52.604;13.438;2023-07-16T13:38:13;2.85;;;1.67;;
13090;SDS011;6611;52.604;13.438;2023-07-16T13:43:14;3.08;;;1.60;;
13090;SDS011;6611;52.604;13.438;2023-07-16T13:48:16;4.25;;;1.48;;
13090;SDS011;6611;52.604;13.438;2023-07-16T13:53:19;2.08;;;1.40;;
13090;SDS011;6611;52.604;13.438;2023-07-16T13:58:21;3.42;;;1.40;;
13090;SDS011;6611;52.604;13.438;2023-07-16T14:03:22;2.10;;;1.40;;
13090;SDS011;6611;52.604;13.438;2023-07-16T14:08:25;2.92;;;1.48;;
13090;SDS011;6611;52.604;13.438;2023-07-16T14:13:27;3.90;;;1.60;;
13090;SDS011;6611;52.604;13.438;2023-07-16T14:18:30;1.67;;;1.40;;
13090;SDS011;6611;52.604;13.438;2023-07-16T14:23:33;3.10;;;1.40;;
13090;SDS011;6611;52.604;13.438;2023-07-16T14:28:34;2.92;;;1.30;;
13090;SDS011;6611;52.604;13.438;2023-07-16T14:33:36;3.33;;;1.30;;
13090;SDS011;6611;52.604;13.438;2023-07-16T14:38:39;2.63;;;1.40;;
13090;SDS011;6611;52.604;13.438;2023-07-16T14:43:41;2.63;;;1.50;;
13090;SDS011;6611;52.604;13.438;2023-07-16T14:48:43;2.20;;;1.50;;
13090;SDS011;6611;52.604;13.438;2023-07-16T14:53:46;1.23;;;1.00;;
13090;SDS011;6611;52.604;13.438;2023-07-16T14:58:48;1.90;;;1.13;;
13090;SDS011;6611;52.604;13.438;2023-07-16T15:03:49;2.33;;;1.10;;
13090;SDS011;6611;52.604;13.438;2023-07-16T15:08:53;1.92;;;1.42;;
13090;SDS011;6611;52.604;13.438;2023-07-16T15:13:54;1.52;;;1.25;;
13090;SDS011;6611;52.604;13.438;2023-07-16T15:18:56;1.40;;;1.05;;
13090;SDS011;6611;52.604;13.438;2023-07-16T15:23:59;3.85;;;1.33;;
13090;SDS011;6611;52.604;13.438;2023-07-16T15:29:00;2.28;;;1.35;;
13090;SDS011;6611;52.604;13.438;2023-07-16T15:34:02;1.48;;;1.08;;
13090;SDS011;6611;52.604;13.438;2023-07-16T15:39:06;2.13;;;1.30;;
13090;SDS011;6611;52.604;13.438;2023-07-16T15:44:07;1.40;;;1.27;;
13090;SDS011;6611;52.604;13.438;2023-07-16T15:49:09;2.22;;;1.30;;
13090;SDS011;6611;52.604;13.438;2023-07-16T15:54:13;2.10;;;1.20;;
13090;SDS011;6611;52.604;13.438;2023-07-16T15:59:14;3.92;;;1.48;;
13090;SDS011;6611;52.604;13.438;2023-07-16T16:04:16;1.73;;;1.30;;
13090;SDS011;6611;52.604;13.438;2023-07-16T16:09:19;3.97;;;1.20;;
13090;SDS011;6611;52.604;13.438;2023-07-16T16:14:22;1.88;;;1.13;;
13090;SDS011;6611;52.604;13.438;2023-07-16T16:19:23;1.98;;;1.30;;
13090;SDS011;6611;52.604;13.438;2023-07-16T16:24:26;1.42;;;1.10;;
13090;SDS011;6611;52.604;13.438;2023-07-16T16:29:28;3.10;;;1.42;;
13090;SDS011;6611;52.604;13.438;2023-07-16T16:34:30;2.05;;;1.48;;
13090;SDS011;6611;52.604;13.438;2023-07-16T16:39:33;2.92;;;1.30;;
13090;SDS011;6611;52.604;13.438;2023-07-16T16:44:34;3.10;;;1.60;;
13090;SDS011;6611;52.604;13.438;2023-07-16T16:49:36;2.40;;;1.23;;
13090;SDS011;6611;52.604;13.438;2023-07-16T16:54:39;2.92;;;1.35;;
13090;SDS011;6611;52.604;13.438;2023-07-16T16:59:41;3.00;;;1.45;;
13090;SDS011;6611;52.604;13.438;2023-07-16T17:04:42;2.80;;;1.20;;
13090;SDS011;6611;52.604;13.438;2023-07-16T17:09:46;3.05;;;1.48;;
13090;SDS011;6611;52.604;13.438;2023-07-16T17:14:48;3.15;;;1.75;;
13090;SDS011;6611;52.604;13.438;2023-07-16T17:19:53;1.85;;;1.10;;
13090;SDS011;6611;52.604;13.438;2023-07-16T17:24:56;3.20;;;1.30;;
13090;SDS011;6611;52.604;13.438;2023-07-16T17:29:58;1.55;;;1.30;;
13090;SDS011;6611;52.604;13.438;2023-07-16T17:35:00;2.85;;;1.52;;
13090;SDS011;6611;52.604;13.438;2023-07-16T17:40:03;1.95;;;1.40;;
13090;SDS011;6611;52.604;13.438;2023-07-16T17:45:07;1.52;;;1.30;;
13090;SDS011;6611;52.604;13.438;2023-07-16T17:50:09;3.75;;;1.50;;
13090;SDS011;6611;52.604;13.438;2023-07-16T17:55:13;2.78;;;1.63;;
13090;SDS011;6611;52.604;13.438;2023-07-16T18:00:15;2.97;;;1.70;;
13090;SDS011;6611;52.604;13.438;2023-07-16T18:05:16;1.50;;;1.30;;
13090;SDS011;6611;52.604;13.438;2023-07-16T18:10:20;2.50;;;1.55;;
13090;SDS011;6611;52.604;13.438;2023-07-16T18:15:21;2.17;;;1.30;;
13090;SDS011;6611;52.604;13.438;2023-07-16T18:20:23;2.08;;;1.73;;
13090;SDS011;6611;52.604;13.438;2023-07-16T18:25:27;2.25;;;1.52;;
13090;SDS011;6611;52.604;13.438;2023-07-16T18:30:29;1.90;;;1.60;;
13090;SDS011;6611;52.604;13.438;2023-07-16T18:35:30;1.67;;;1.35;;
13090;SDS011;6611;52.604;13.438;2023-07-16T18:40:34;2.30;;;1.50;;
13090;SDS011;6611;52.604;13.438;2023-07-16T18:45:36;2.30;;;1.52;;
13090;SDS011;6611;52.604;13.438;2023-07-16T18:50:38;3.00;;;1.77;;
13090;SDS011;6611;52.604;13.438;2023-07-16T18:55:41;1.85;;;1.50;;
13090;SDS011;6611;52.604;13.438;2023-07-16T19:00:46;2.40;;;1.55;;
13090;SDS011;6611;52.604;13.438;2023-07-16T19:05:48;2.83;;;1.98;;
13090;SDS011;6611;52.604;13.438;2023-07-16T19:10:51;2.40;;;1.50;;
13090;SDS011;6611;52.604;13.438;2023-07-16T19:15:53;2.80;;;1.50;;
13090;SDS011;6611;52.604;13.438;2023-07-16T19:20:55;1.95;;;1.55;;
13090;SDS011;6611;52.604;13.438;2023-07-16T19:25:58;2.77;;;1.70;;
13090;SDS011;6611;52.604;13.438;2023-07-16T19:30:59;3.87;;;1.60;;
13090;SDS011;6611;52.604;13.438;2023-07-16T19:36:01;2.43;;;1.50;;
13090;SDS011;6611;52.604;13.438;2023-07-16T19:41:04;3.30;;;2.00;;
13090;SDS011;6611;52.604;13.438;2023-07-16T19:46:06;2.37;;;1.77;;
13090;SDS011;6611;52.604;13.438;2023-07-16T19:51:08;2.93;;;1.57;;
13090;SDS011;6611;52.604;13.438;2023-07-16T19:56:11;3.07;;;1.83;;
13090;SDS011;6611;52.604;13.438;2023-07-16T20:01:13;2.40;;;1.87;;
13090;SDS011;6611;52.604;13.438;2023-07-16T20:06:15;2.40;;;1.60;;
13090;SDS011;6611;52.604;13.438;2023-07-16T20:11:18;4.30;;;3.42;;
13090;SDS011;6611;52.604;13.438;2023-07-16T20:16:20;2.78;;;1.90;;
13090;SDS011;6611;52.604;13.438;2023-07-16T20:21:24;3.03;;;1.80;;
13090;SDS011;6611;52.604;13.438;2023-07-16T20:26:27;2.50;;;2.00;;
13090;SDS011;6611;52.604;13.438;2023-07-16T20:31:29;2.10;;;1.67;;
13090;SDS011;6611;52.604;13.438;2023-07-16T20:36:31;2.93;;;2.00;;
13090;SDS011;6611;52.604;13.438;2023-07-16T20:41:34;5.43;;;2.20;;
13090;SDS011;6611;52.604;13.438;2023-07-16T20:46:35;2.80;;;1.70;;
13090;SDS011;6611;52.604;13.438;2023-07-16T20:51:37;4.50;;;2.40;;
13090;SDS011;6611;52.604;13.438;2023-07-16T20:56:40;3.60;;;2.30;;
13090;SDS011;6611;52.604;13.438;2023-07-16T21:01:41;3.10;;;2.40;;
13090;SDS011;6611;52.604;13.438;2023-07-16T21:06:43;4.30;;;2.40;;
13090;SDS011;6611;52.604;13.438;2023-07-16T21:11:46;3.47;;;2.87;;
13090;SDS011;6611;52.604;13.438;2023-07-16T21:16:48;4.33;;;3.20;;
13090;SDS011;6611;52.604;13.438;2023-07-16T21:21:50;4.17;;;3.20;;
13090;SDS011;6611;52.604;13.438;2023-07-16T21:26:53;3.60;;;2.60;;
13090;SDS011;6611;52.604;13.438;2023-07-16T21:31:55;4.33;;;2.80;;
13090;SDS011;6611;52.604;13.438;2023-07-16T21:36:56;3.40;;;2.70;;
13090;SDS011;6611;52.604;13.438;2023-07-16T21:42:00;3.97;;;2.73;;
13090;SDS011;6611;52.604;13.438;2023-07-16T21:47:02;3.57;;;2.80;;
13090;SDS011;6611;52.604;13.438;2023-07-16T21:52:04;4.87;;;2.60;;
13090;SDS011;6611;52.604;13.438;2023-07-16T21:57:08;4.17;;;2.67;;
13090;SDS011;6611;52.604;13.438;2023-07-16T22:02:10;7.27;;;2.87;;
13090;SDS011;6611;52.604;13.438;2023-07-16T22:07:12;3.97;;;3.00;;
13090;SDS011;6611;52.604;13.438;2023-07-16T22:12:15;3.73;;;2.93;;
13090;SDS011;6611;52.604;13.438;2023-07-16T22:17:17;4.77;;;3.07;;
13090;SDS011;6611;52.604;13.438;2023-07-16T22:22:19;4.50;;;3.10;;
13090;SDS011;6611;52.604;13.438;2023-07-16T22:27:22;7.70;;;3.20;;
13090;SDS011;6611;52.604;13.438;2023-07-16T22:32:23;3.30;;;3.00;;
13090;SDS011;6611;52.604;13.438;2023-07-16T22:37:25;4.40;;;2.87;;
13090;SDS011;6611;52.604;13.438;2023-07-16T22:42:28;5.47;;;3.40;;
13090;SDS011;6611;52.604;13.438;2023-07-16T22:47:30;4.87;;;3.30;;
13090;SDS011;6611;52.604;13.438;2023-07-16T22:52:32;3.50;;;2.57;;
13090;SDS011;6611;52.604;13.438;2023-07-16T22:57:35;3.73;;;2.70;;
13090;SDS011;6611;52.604;13.438;2023-07-16T23:02:37;4.93;;;3.43;;
13090;SDS011;6611;52.604;13.438;2023-07-16T23:07:40;4.83;;;2.87;;
13090;SDS011;6611;52.604;13.438;2023-07-16T23:12:44;4.37;;;3.07;;
13090;SDS011;6611;52.604;13.438;2023-07-16T23:17:46;4.17;;;3.07;;
13090;SDS011;6611;52.604;13.438;2023-07-16T23:22:47;3.87;;;3.10;;
13090;SDS011;6611;52.604;13.438;2023-07-16T23:27:50;5.70;;;3.07;;
13090;SDS011;6611;52.604;13.438;2023-07-16T23:32:52;3.73;;;2.80;;
13090;SDS011;6611;52.604;13.438;2023-07-16T23:37:54;4.13;;;2.80;;
13090;SDS011;6611;52.604;13.438;2023-07-16T23:42:57;5.33;;;3.30;;
13090;SDS011;6611;52.604;13.438;2023-07-16T23:47:59;4.03;;;3.00;;
13090;SDS011;6611;52.604;13.438;2023-07-16T23:53:00;6.50;;;3.40;;
13090;SDS011;6611;52.604;13.438;2023-07-16T23:58:03;4.23;;;3.00;;
